createdAt,value
2022-09-30T00:01:04.647Z,100094.69
2022-09-30T00:03:31.072Z,100096.44
2022-09-30T00:06:07.910Z,100105.09
2022-09-30T00:08:36.258Z,100103.50
2022-09-30T00:11:16.234Z,100099.25
2022-09-30T00:13:44.232Z,100101.97
2022-09-30T00:16:12.478Z,100102.81
2022-09-30T00:18:39.663Z,100106.22
2022-09-30T00:21:08.240Z,100114.16
2022-09-30T00:23:36.542Z,100111.59
2022-09-30T00:26:06.317Z,100112.53
2022-09-30T00:28:33.608Z,100122.13
2022-09-30T00:31:02.091Z,100126.41
2022-09-30T00:33:29.260Z,100128.06
2022-09-30T00:35:55.664Z,100122.88
2022-09-30T00:38:22.593Z,100114.16
2022-09-30T00:40:49.951Z,100110.72
2022-09-30T00:43:20.259Z,100116.78
2022-09-30T00:45:56.897Z,100115.06
2022-09-30T00:48:30.729Z,100117.69
2022-09-30T00:50:58.261Z,100114.19
2022-09-30T00:53:35.053Z,100117.66
2022-09-30T00:56:10.137Z,100119.47
2022-09-30T00:58:43.483Z,100123.91
2022-09-30T01:01:10.613Z,100125.66
2022-09-30T01:03:42.803Z,100120.41
2022-09-30T01:06:09.316Z,100116.13
2022-09-30T01:08:38.917Z,100119.56
2022-09-30T01:11:08.166Z,100122.16
2022-09-30T01:13:37.180Z,100118.72
2022-09-30T01:16:28.297Z,100120.53
2022-09-30T01:19:16.739Z,100124.81
2022-09-30T01:22:20.855Z,100127.44
2022-09-30T01:25:15.532Z,100121.44
2022-09-30T01:28:03.799Z,100126.66
2022-09-30T01:30:57.017Z,100130.09
2022-09-30T01:33:32.552Z,100129.19
2022-09-30T01:36:23.771Z,100125.81
2022-09-30T01:39:09.909Z,100120.59
2022-09-30T01:41:53.034Z,100126.69
2022-09-30T01:44:33.321Z,100132.75
2022-09-30T01:47:13.598Z,100131.84
2022-09-30T01:49:51.701Z,100129.25
2022-09-30T01:52:30.091Z,100130.09
2022-09-30T01:55:07.276Z,100135.28
2022-09-30T01:57:45.528Z,100138.72
2022-09-30T02:00:13.810Z,100139.56
2022-09-30T02:02:49.096Z,100141.38
2022-09-30T02:05:42.778Z,100140.56
2022-09-30T02:08:33.495Z,100138.84
2022-09-30T02:11:09.024Z,100143.19
2022-09-30T02:14:00.807Z,100130.25
2022-09-30T02:16:56.596Z,100130.31
2022-09-30T02:19:30.444Z,100125.06
2022-09-30T02:22:13.255Z,100125.94
2022-09-30T02:24:40.902Z,100117.19
2022-09-30T02:27:13.265Z,100132.78
2022-09-30T02:29:45.582Z,100131.00
2022-09-30T02:32:18.552Z,100128.41
2022-09-30T02:34:54.024Z,100132.78
2022-09-30T02:37:28.291Z,100138.84
2022-09-30T02:40:11.727Z,100141.44
2022-09-30T02:42:40.995Z,100143.19
2022-09-30T02:45:11.506Z,100138.91
2022-09-30T02:48:12.800Z,100146.75
2022-09-30T02:50:58.467Z,100142.53
2022-09-30T02:53:52.731Z,100146.03
2022-09-30T02:56:40.080Z,100151.25
2022-09-30T02:59:06.529Z,100151.25
2022-09-30T03:01:33.107Z,100148.63
2022-09-30T03:04:07.990Z,100152.97
2022-09-30T03:06:36.366Z,100153.78
2022-09-30T03:09:03.766Z,100156.31
2022-09-30T03:11:31.975Z,100153.72
2022-09-30T03:14:34.560Z,100156.34
2022-09-30T03:17:10.149Z,100152.00
2022-09-30T03:20:01.565Z,100146.78
2022-09-30T03:22:57.030Z,100149.41
2022-09-30T03:25:44.686Z,100159.03
2022-09-30T03:28:22.810Z,100155.59
2022-09-30T03:31:00.399Z,100160.00
2022-09-30T03:33:39.791Z,100159.13
2022-09-30T03:36:18.443Z,100170.38
2022-09-30T03:38:57.376Z,100176.44
2022-09-30T03:41:35.458Z,100184.19
2022-09-30T03:44:24.079Z,100182.50
2022-09-30T03:47:02.783Z,100173.00
2022-09-30T03:49:37.578Z,100168.66
2022-09-30T03:52:09.348Z,100177.28
2022-09-30T03:55:03.833Z,100179.91
2022-09-30T03:57:30.701Z,100185.09
2022-09-30T03:59:58.252Z,100192.88
2022-09-30T04:02:25.623Z,100195.53
2022-09-30T04:04:52.229Z,100199.00
2022-09-30T04:07:19.127Z,100201.63
2022-09-30T04:09:45.671Z,100200.72
2022-09-30T04:12:12.119Z,100200.69
2022-09-30T04:14:38.587Z,100200.66
2022-09-30T04:17:05.989Z,100200.63
2022-09-30T04:19:38.002Z,100202.34
2022-09-30T04:22:04.452Z,100205.84
2022-09-30T04:24:30.862Z,100211.91
2022-09-30T04:26:57.444Z,100211.06
2022-09-30T04:29:24.138Z,100212.78
2022-09-30T04:31:50.697Z,100217.97
2022-09-30T04:34:17.187Z,100219.75
2022-09-30T04:36:43.673Z,100218.91
2022-09-30T04:39:10.299Z,100233.63
2022-09-30T04:41:36.755Z,100231.03
2022-09-30T04:44:06.341Z,100229.31
2022-09-30T04:46:34.466Z,100226.66
2022-09-30T04:49:00.981Z,100231.88
2022-09-30T04:51:27.520Z,100245.69
2022-09-30T04:53:53.988Z,100230.09
2022-09-30T04:56:20.453Z,100234.41
2022-09-30T04:58:47.219Z,100240.50
2022-09-30T05:01:16.479Z,100233.56
2022-09-30T05:03:43.426Z,100230.09
2022-09-30T05:06:10.908Z,100236.16
2022-09-30T05:08:38.853Z,100238.75
2022-09-30T05:11:12.148Z,100244.00
2022-09-30T05:13:40.472Z,100250.06
2022-09-30T05:16:09.243Z,100253.53
2022-09-30T05:18:36.148Z,100251.81
2022-09-30T05:21:04.170Z,100246.63
2022-09-30T05:23:31.957Z,100252.66
2022-09-30T05:25:59.548Z,100243.13
2022-09-30T05:28:26.004Z,100240.50
2022-09-30T05:31:01.246Z,100253.50
2022-09-30T05:33:29.505Z,100256.94
2022-09-30T05:35:59.688Z,100252.63
2022-09-30T05:38:26.783Z,100263.91
2022-09-30T05:40:54.380Z,100269.94
2022-09-30T05:43:20.854Z,100275.16
2022-09-30T05:45:54.803Z,100283.81
2022-09-30T05:48:21.820Z,100282.09
2022-09-30T05:50:52.835Z,100296.78
2022-09-30T05:53:19.318Z,100301.09
2022-09-30T05:55:47.483Z,100299.38
2022-09-30T05:58:15.467Z,100308.88
2022-09-30T06:00:43.364Z,100307.09
2022-09-30T06:03:09.925Z,100305.38
2022-09-30T06:05:37.343Z,100307.06
2022-09-30T06:08:04.382Z,100300.16
2022-09-30T06:10:30.808Z,100310.50
2022-09-30T06:12:59.079Z,100311.38
2022-09-30T06:15:26.908Z,100313.94
2022-09-30T06:17:53.999Z,100315.66
2022-09-30T06:20:20.756Z,100317.38
2022-09-30T06:22:47.526Z,100313.91
2022-09-30T06:25:14.590Z,100322.56
2022-09-30T06:27:44.635Z,100316.50
2022-09-30T06:30:11.362Z,100325.13
2022-09-30T06:32:37.842Z,100330.31
2022-09-30T06:35:04.474Z,100332.00
2022-09-30T06:37:30.903Z,100332.84
2022-09-30T06:39:57.328Z,100338.91
2022-09-30T06:42:24.933Z,100343.22
2022-09-30T06:44:53.424Z,100351.84
2022-09-30T06:47:25.602Z,100351.81
2022-09-30T06:49:53.023Z,100357.00
2022-09-30T06:52:20.080Z,100361.34
2022-09-30T06:54:46.973Z,100360.47
2022-09-30T06:57:13.660Z,100364.78
2022-09-30T06:59:40.066Z,100369.91
2022-09-30T07:02:06.638Z,100375.97
2022-09-30T07:04:33.119Z,100382.00
2022-09-30T07:06:59.586Z,100384.59
2022-09-30T07:09:26.217Z,100389.78
2022-09-30T07:11:52.773Z,100396.66
2022-09-30T07:14:19.234Z,100394.03
2022-09-30T07:16:46.454Z,100394.03
2022-09-30T07:19:12.952Z,100394.88
2022-09-30T07:21:39.370Z,100398.34
2022-09-30T07:24:05.988Z,100387.06
2022-09-30T07:26:33.336Z,100387.91
2022-09-30T07:29:00.261Z,100385.28
2022-09-30T07:31:32.851Z,100393.03
2022-09-30T07:34:00.338Z,100384.31
2022-09-30T07:36:32.609Z,100390.31
2022-09-30T07:39:00.287Z,100390.31
2022-09-30T07:41:29.016Z,100395.53
2022-09-30T07:43:57.359Z,100389.47
2022-09-30T07:46:29.716Z,100397.22
2022-09-30T07:48:59.236Z,100396.31
2022-09-30T07:51:31.661Z,100401.47
2022-09-30T07:54:01.355Z,100405.78
2022-09-30T07:56:41.080Z,100400.53
2022-09-30T07:59:16.538Z,100404.00
2022-09-30T08:01:43.516Z,100397.06
2022-09-30T08:04:11.487Z,100391.81
2022-09-30T08:06:40.619Z,100406.53
2022-09-30T08:09:07.977Z,100403.94
2022-09-30T08:11:36.985Z,100400.41
2022-09-30T08:14:04.093Z,100396.94
2022-09-30T08:16:32.000Z,100399.47
2022-09-30T08:19:01.266Z,100401.13
2022-09-30T08:21:29.205Z,100402.88
2022-09-30T08:23:55.596Z,100406.34
2022-09-30T08:26:22.016Z,100411.53
2022-09-30T08:28:48.629Z,100414.97
2022-09-30T08:31:17.554Z,100411.47
2022-09-30T08:33:44.378Z,100403.63
2022-09-30T08:36:13.423Z,100414.00
2022-09-30T08:38:40.291Z,100405.31
2022-09-30T08:41:37.216Z,100403.50
2022-09-30T08:44:25.374Z,100402.63
2022-09-30T08:47:12.628Z,100400.88
2022-09-30T08:50:12.079Z,100404.31
2022-09-30T08:52:50.211Z,100398.16
2022-09-30T08:55:22.941Z,100403.22
2022-09-30T08:57:52.027Z,100406.66
2022-09-30T09:00:19.416Z,100407.53
2022-09-30T09:02:58.178Z,100416.13
2022-09-30T09:05:56.677Z,100409.03
2022-09-30T09:09:20.339Z,100424.69
2022-09-30T09:12:14.349Z,100418.59
2022-09-30T09:14:56.443Z,100415.09
2022-09-30T09:17:38.091Z,100412.47
2022-09-30T09:20:37.388Z,100404.56
2022-09-30T09:23:08.165Z,100409.72
2022-09-30T09:25:34.816Z,100404.38
2022-09-30T09:28:06.122Z,100408.63
2022-09-30T09:30:43.459Z,100406.88
2022-09-30T09:33:22.861Z,100405.03
2022-09-30T09:36:23.391Z,100403.25
2022-09-30T09:39:16.029Z,100397.97
2022-09-30T09:42:17.040Z,100399.50
2022-09-30T09:45:10.941Z,100399.44
2022-09-30T09:47:37.445Z,100396.69
2022-09-30T09:50:14.970Z,100396.50
2022-09-30T09:53:03.207Z,100397.34
2022-09-30T09:55:29.655Z,100393.94
2022-09-30T09:58:26.179Z,100389.56
2022-09-30T10:00:52.792Z,100392.09
2022-09-30T10:03:26.280Z,100399.00
2022-09-30T10:06:09.083Z,100397.28
2022-09-30T10:08:52.106Z,100392.03
2022-09-30T10:11:23.143Z,100398.91
2022-09-30T10:13:51.139Z,100399.72
2022-09-30T10:16:23.604Z,100388.38
2022-09-30T10:18:50.054Z,100391.72
2022-09-30T10:21:22.746Z,100383.78
2022-09-30T10:23:49.248Z,100391.63
2022-09-30T10:26:15.682Z,100382.00
2022-09-30T10:28:49.147Z,100377.72
2022-09-30T10:31:35.582Z,100382.75
2022-09-30T10:34:34.487Z,100377.06
2022-09-30T10:37:16.564Z,100388.16
2022-09-30T10:39:48.763Z,100385.06
2022-09-30T10:42:23.598Z,100378.09
2022-09-30T10:44:55.711Z,100376.63
2022-09-30T10:47:26.209Z,100377.38
2022-09-30T10:50:04.774Z,100380.56
2022-09-30T10:52:34.844Z,100386.47
2022-09-30T10:55:12.685Z,100381.63
2022-09-30T10:57:42.267Z,100382.47
2022-09-30T11:00:18.829Z,100381.63
2022-09-30T11:02:54.154Z,100378.22
2022-09-30T11:05:27.026Z,100382.53
2022-09-30T11:08:01.721Z,100388.44
2022-09-30T11:10:34.099Z,100385.13
2022-09-30T11:13:19.355Z,100392.69
2022-09-30T11:16:19.820Z,100399.78
2022-09-30T11:18:53.081Z,100404.88
2022-09-30T11:21:22.616Z,100407.69
2022-09-30T11:24:00.728Z,100401.53
2022-09-30T11:27:16.627Z,100403.19
2022-09-30T11:30:01.268Z,100397.63
2022-09-30T11:32:39.912Z,100392.38
2022-09-30T11:35:21.489Z,100401.59
2022-09-30T11:38:02.619Z,100396.78
2022-09-30T11:41:04.330Z,100383.53
2022-09-30T11:44:02.218Z,100391.28
2022-09-30T11:46:44.733Z,100389.22
2022-09-30T11:49:28.251Z,100386.78
2022-09-30T11:52:00.616Z,100380.03
2022-09-30T11:54:48.355Z,100388.78
2022-09-30T11:57:45.928Z,100378.53
2022-09-30T12:00:12.319Z,100369.59
2022-09-30T12:02:44.489Z,100372.69
2022-09-30T12:05:19.047Z,100372.44
2022-09-30T12:08:04.689Z,100372.50
2022-09-30T12:10:40.495Z,100369.72
2022-09-30T12:13:14.006Z,100358.81
2022-09-30T12:15:44.631Z,100353.00
2022-09-30T12:18:16.847Z,100356.19
2022-09-30T12:21:16.434Z,100346.06
2022-09-30T12:23:53.214Z,100349.53
2022-09-30T12:26:19.823Z,100354.06
2022-09-30T12:29:15.081Z,100344.34
2022-09-30T12:32:09.321Z,100338.47
2022-09-30T12:35:20.950Z,100346.38
2022-09-30T12:38:03.213Z,100340.34
2022-09-30T12:40:52.332Z,100338.84
2022-09-30T12:43:38.661Z,100344.16
2022-09-30T12:46:14.840Z,100330.09
2022-09-30T12:48:55.821Z,100327.56
2022-09-30T12:51:48.953Z,100316.34
2022-09-30T12:54:21.955Z,100317.84
2022-09-30T12:56:56.059Z,100320.25
2022-09-30T12:59:28.051Z,100325.56
2022-09-30T13:01:56.524Z,100317.78
2022-09-30T13:04:35.174Z,100313.72
2022-09-30T13:07:01.748Z,100320.69
2022-09-30T13:09:36.880Z,100310.75
2022-09-30T13:12:03.226Z,100300.13
2022-09-30T13:14:43.296Z,100295.41
2022-09-30T13:17:13.157Z,100286.22
2022-09-30T13:19:44.878Z,100281.06
2022-09-30T13:22:20.835Z,100290.41
2022-09-30T13:25:05.529Z,100292.91
2022-09-30T13:28:10.780Z,100299.03
2022-09-30T13:30:38.309Z,100293.88
2022-09-30T13:33:25.975Z,100288.16
2022-09-30T13:35:52.853Z,100290.91
2022-09-30T13:38:24.353Z,100291.00
2022-09-30T13:41:02.267Z,100298.03
2022-09-30T13:43:35.612Z,100285.97
2022-09-30T13:46:13.151Z,100279.97
2022-09-30T13:48:44.907Z,100286.25
2022-09-30T13:51:15.517Z,100282.72
2022-09-30T13:53:47.295Z,100287.78
2022-09-30T13:56:36.128Z,100285.25
2022-09-30T13:59:15.122Z,100281.06
2022-09-30T14:01:53.647Z,100280.59
2022-09-30T14:04:47.415Z,100275.34
2022-09-30T14:07:32.667Z,100268.28
2022-09-30T14:10:10.867Z,100269.19
2022-09-30T14:12:46.387Z,100273.59
2022-09-30T14:15:42.495Z,100265.50
2022-09-30T14:18:32.075Z,100260.44
2022-09-30T14:21:27.431Z,100261.44
2022-09-30T14:24:00.284Z,100258.66
2022-09-30T14:26:33.194Z,100258.81
2022-09-30T14:29:27.090Z,100251.63
2022-09-30T14:31:53.699Z,100237.63
2022-09-30T14:34:22.669Z,100239.16
2022-09-30T14:36:51.197Z,100238.81
2022-09-30T14:39:23.433Z,100238.25
2022-09-30T14:41:53.499Z,100234.63
2022-09-30T14:44:21.350Z,100242.31
2022-09-30T14:46:50.504Z,100250.97
2022-09-30T14:49:22.486Z,100240.78
2022-09-30T14:51:49.143Z,100237.44
2022-09-30T14:54:23.837Z,100238.16
2022-09-30T14:56:54.628Z,100237.78
2022-09-30T14:59:23.648Z,100218.16
2022-09-30T15:01:55.396Z,100226.34
2022-09-30T15:04:26.222Z,100224.84
2022-09-30T15:06:53.805Z,100226.69
2022-09-30T15:09:29.054Z,100233.88
2022-09-30T15:11:55.824Z,100228.38
2022-09-30T15:14:23.742Z,100225.03
2022-09-30T15:16:55.226Z,100217.41
2022-09-30T15:19:35.036Z,100213.78
2022-09-30T15:22:04.788Z,100209.69
2022-09-30T15:24:34.357Z,100220.22
2022-09-30T15:27:02.718Z,100214.34
2022-09-30T15:29:29.228Z,100216.19
2022-09-30T15:32:15.650Z,100213.38
2022-09-30T15:34:46.046Z,100208.25
2022-09-30T15:37:33.619Z,100212.66
2022-09-30T15:40:20.473Z,100210.88
2022-09-30T15:42:57.056Z,100214.13
2022-09-30T15:45:35.542Z,100216.41
2022-09-30T15:48:26.917Z,100215.50
2022-09-30T15:50:57.448Z,100213.03
2022-09-30T15:53:31.273Z,100218.88
2022-09-30T15:56:16.601Z,100217.50
2022-09-30T15:58:55.885Z,100230.22
2022-09-30T16:01:50.645Z,100219.34
2022-09-30T16:04:17.233Z,100215.84
2022-09-30T16:06:54.983Z,100224.91
2022-09-30T16:09:34.921Z,100222.50
2022-09-30T16:12:13.636Z,100226.06
2022-09-30T16:14:48.798Z,100230.53
2022-09-30T16:17:38.056Z,100234.06
2022-09-30T16:20:09.310Z,100231.00
2022-09-30T16:22:52.535Z,100236.66
2022-09-30T16:25:28.745Z,100231.94
2022-09-30T16:27:59.433Z,100233.13
2022-09-30T16:30:26.686Z,100237.03
2022-09-30T16:32:58.134Z,100239.31
2022-09-30T16:35:26.950Z,100250.31
2022-09-30T16:38:06.074Z,100249.47
2022-09-30T16:40:35.589Z,100247.00
2022-09-30T16:43:07.097Z,100247.19
2022-09-30T16:45:34.724Z,100247.31
2022-09-30T16:48:01.978Z,100251.88
2022-09-30T16:50:48.682Z,100253.94
2022-09-30T16:53:15.166Z,100242.78
2022-09-30T16:55:41.805Z,100238.63
2022-09-30T16:58:12.171Z,100246.72
2022-09-30T17:00:44.334Z,100246.97
2022-09-30T17:03:15.707Z,100241.09
2022-09-30T17:05:46.863Z,100238.69
2022-09-30T17:08:15.067Z,100229.22
2022-09-30T17:10:47.407Z,100229.38
2022-09-30T17:13:17.217Z,100226.88
2022-09-30T17:15:48.555Z,100233.09
2022-09-30T17:18:15.189Z,100235.84
2022-09-30T17:20:52.487Z,100236.84
2022-09-30T17:23:20.719Z,100233.47
2022-09-30T17:25:47.266Z,100229.19
2022-09-30T17:28:14.518Z,100234.44
2022-09-30T17:30:41.404Z,100231.84
2022-09-30T17:33:09.929Z,100232.81
2022-09-30T17:35:40.445Z,100243.34
2022-09-30T17:38:12.211Z,100232.94
2022-09-30T17:40:58.074Z,100236.50
2022-09-30T17:43:24.654Z,100225.22
2022-09-30T17:45:52.143Z,100226.16
2022-09-30T17:48:18.931Z,100226.22
2022-09-30T17:50:47.853Z,100228.03
2022-09-30T17:53:18.059Z,100232.44
2022-09-30T17:55:47.905Z,100234.25
2022-09-30T17:58:18.038Z,100236.84
2022-09-30T18:00:45.181Z,100240.41
2022-09-30T18:03:12.120Z,100233.44
2022-09-30T18:05:38.928Z,100215.09
2022-09-30T18:08:06.127Z,100222.97
2022-09-30T18:10:35.390Z,100214.19
2022-09-30T18:13:02.048Z,100213.34
2022-09-30T18:15:28.494Z,100222.94
2022-09-30T18:17:55.087Z,100218.59
2022-09-30T18:20:24.814Z,100222.06
2022-09-30T18:22:53.413Z,100215.97
2022-09-30T18:25:19.926Z,100222.09
2022-09-30T18:28:09.410Z,100226.44
2022-09-30T18:30:37.081Z,100232.59
2022-09-30T18:33:07.037Z,100233.53
2022-09-30T18:35:38.862Z,100234.41
2022-09-30T18:38:06.818Z,100235.28
2022-09-30T18:40:33.795Z,100223.97
2022-09-30T18:43:14.118Z,100231.00
2022-09-30T18:45:43.156Z,100241.44
2022-09-30T18:48:10.309Z,100241.44
2022-09-30T18:50:37.344Z,100250.16
2022-09-30T18:53:09.483Z,100238.88
2022-09-30T18:55:39.712Z,100251.97
2022-09-30T18:58:06.569Z,100245.81
2022-09-30T19:00:33.173Z,100253.66
2022-09-30T19:02:59.678Z,100250.25
2022-09-30T19:05:26.775Z,100248.47
2022-09-30T19:07:54.162Z,100245.88
2022-09-30T19:10:21.430Z,100247.63
2022-09-30T19:12:47.926Z,100240.72
2022-09-30T19:15:17.779Z,100239.03
2022-09-30T19:17:45.018Z,100237.31
2022-09-30T19:20:13.961Z,100241.69
2022-09-30T19:22:40.664Z,100239.97
2022-09-30T19:25:11.048Z,100239.13
2022-09-30T19:27:39.153Z,100229.50
2022-09-30T19:30:06.564Z,100222.59
2022-09-30T19:32:35.947Z,100225.28
2022-09-30T19:35:06.996Z,100216.56
2022-09-30T19:37:34.266Z,100220.94
2022-09-30T19:40:10.187Z,100222.72
2022-09-30T19:42:42.666Z,100215.66
2022-09-30T19:45:09.212Z,100219.13
2022-09-30T19:47:36.529Z,100216.63
2022-09-30T19:50:04.296Z,100221.84
2022-09-30T19:52:30.914Z,100221.91
2022-09-30T19:55:05.449Z,100214.03
2022-09-30T19:57:37.483Z,100210.63
2022-09-30T20:00:05.496Z,100212.38
2022-09-30T20:02:32.390Z,100215.94
2022-09-30T20:05:00.418Z,100216.84
2022-09-30T20:07:28.147Z,100213.44
2022-09-30T20:09:54.715Z,100215.19
2022-09-30T20:12:21.286Z,100228.28
2022-09-30T20:15:06.163Z,100227.47
2022-09-30T20:17:32.768Z,100231.03
2022-09-30T20:20:17.921Z,100224.94
2022-09-30T20:22:44.396Z,100232.75
2022-09-30T20:25:11.205Z,100231.91
2022-09-30T20:27:39.166Z,100235.41
2022-09-30T20:30:06.503Z,100232.81
2022-09-30T20:32:33.066Z,100224.03
2022-09-30T20:34:59.678Z,100214.34
2022-09-30T20:37:26.302Z,100218.69
2022-09-30T20:39:52.931Z,100213.50
2022-09-30T20:42:19.389Z,100201.31
2022-09-30T20:44:45.899Z,100196.88
2022-09-30T20:47:12.538Z,100189.88
2022-09-30T20:49:39.167Z,100179.41
2022-09-30T20:52:06.092Z,100175.03
2022-09-30T20:54:35.471Z,100173.28
2022-09-30T20:57:07.174Z,100168.03
2022-09-30T20:59:34.435Z,100162.81
2022-09-30T21:02:00.942Z,100173.00
2022-09-30T21:04:28.316Z,100166.06
2022-09-30T21:06:54.852Z,100171.31
2022-09-30T21:09:26.642Z,100167.78
2022-09-30T21:11:53.227Z,100168.69
2022-09-30T21:14:19.789Z,100167.59
2022-09-30T21:16:46.324Z,100156.97
2022-09-30T21:19:12.788Z,100156.97
2022-09-30T21:21:39.277Z,100144.81
2022-09-30T21:24:05.929Z,100144.81
2022-09-30T21:26:32.844Z,100139.63
2022-09-30T21:29:00.008Z,100133.56
2022-09-30T21:31:27.798Z,100133.50
2022-09-30T21:33:58.568Z,100130.88
2022-09-30T21:36:26.734Z,100129.13
2022-09-30T21:38:55.022Z,100129.16
2022-09-30T21:41:23.096Z,100123.94
2022-09-30T21:43:49.721Z,100129.06
2022-09-30T21:46:18.647Z,100123.72
2022-09-30T21:48:48.335Z,100115.06
2022-09-30T21:51:15.043Z,100119.56
2022-09-30T21:53:42.092Z,100117.91
2022-09-30T21:56:12.464Z,100111.06
2022-09-30T21:58:39.395Z,100110.25
2022-09-30T22:01:07.679Z,100112.94
2022-09-30T22:03:38.025Z,100109.41
2022-09-30T22:06:10.513Z,100112.06
2022-09-30T22:08:41.927Z,100112.13
2022-09-30T22:11:14.835Z,100115.66
2022-09-30T22:13:48.616Z,100115.69
2022-09-30T22:16:15.778Z,100105.22
2022-09-30T22:18:43.090Z,100106.09
2022-09-30T22:21:14.446Z,100103.47
2022-09-30T22:23:41.576Z,100104.38
2022-09-30T22:26:14.812Z,100111.22
2022-09-30T22:28:41.553Z,100102.47
2022-09-30T22:31:21.757Z,100100.75
2022-09-30T22:34:10.096Z,100098.09
2022-09-30T22:36:55.915Z,100094.59
2022-09-30T22:39:23.835Z,100091.03
2022-09-30T22:41:58.330Z,100086.75
2022-09-30T22:44:28.226Z,100086.75
2022-09-30T22:46:57.780Z,100083.28
2022-09-30T22:49:25.549Z,100087.53
2022-09-30T22:51:57.269Z,100085.72
2022-09-30T22:54:25.525Z,100076.97
2022-09-30T22:56:54.612Z,100076.97
2022-09-30T22:59:23.215Z,100067.25
2022-09-30T23:01:49.792Z,100077.78
2022-09-30T23:04:17.320Z,100071.69
2022-09-30T23:06:46.505Z,100066.50
2022-09-30T23:09:12.897Z,100050.69
2022-09-30T23:11:39.312Z,100052.47
2022-09-30T23:14:05.746Z,100040.28
2022-09-30T23:16:32.503Z,100048.88
2022-09-30T23:18:59.029Z,100033.28
2022-09-30T23:21:25.819Z,100028.84
2022-09-30T23:23:53.348Z,100027.09
2022-09-30T23:26:25.174Z,100027.09
2022-09-30T23:29:03.018Z,100015.75
2022-09-30T23:31:30.379Z,100014.00
2022-09-30T23:33:59.526Z,100001.78
2022-09-30T23:36:29.779Z,100004.50
2022-09-30T23:39:02.664Z,99999.19
2022-09-30T23:41:31.324Z,99996.63
2022-09-30T23:43:58.317Z,99992.22
2022-09-30T23:46:24.913Z,99994.88
2022-09-30T23:48:51.384Z,99983.44
2022-09-30T23:51:19.139Z,99966.88
2022-09-30T23:53:46.248Z,99973.81
2022-09-30T23:56:15.462Z,99956.47
2022-09-30T23:58:43.482Z,99973.13
